Buskirk, New York
Current Conditions -  °F | °C
As of 8:54 AM on Sunday 25 Jan 2015 (Local Time) from KDDH Reporting Station
Few Clouds Few Clouds  
Wind Chill: 16°   Ceiling: Unl
Heat Index: 29°   Visibility: 10mi
Dew Point: 15°   Wind: 18mph
Humidity: 56%   Direction: 300°WNW
Pressure: 29.59"   Gusts: 29mph
Location:  42.95°N, 73.43°W
Report Text: KDDH 251354Z AUTO 30016G25KT 10SM FEW034 M02/M09 A2959 RMK AO2 PK WND 25029/1317 SLP028 T10171094
Loading
Personal Weather Stations






























Interactive Weather Map New forecast layout! Learn more

10-Day Weather Forecast

Advertisements
Track Severe Weather on mobile